Time;durP1;ratioP1;P1;durP2;ratioP2;P2;SDS_P1;SDS_P2;PMS_P1;PMS_P2;Temp;Humidity;BMP_temperature;BMP_pressure;BME280_temperature;BME280_humidity;BME280_pressure;Samples;Min_cycle;Max_cycle;Signal;HPM_P1;HPM_P2
2023/09/16 00:00:33;;;;;;;3.95;3.70;;;18.00;99.90;;;;;;4934833;29;20254;-58
2023/09/16 00:03:01;;;;;;;7.32;4.10;;;18.00;99.90;;;;;;4935775;29;20739;-58
2023/09/16 00:05:31;;;;;;;4.32;4.05;;;18.00;99.90;;;;;;4928044;29;20225;-58
2023/09/16 00:07:58;;;;;;;3.97;3.78;;;18.00;99.90;;;;;;4932848;29;20206;-59
2023/09/16 00:10:26;;;;;;;6.13;4.07;;;17.90;99.90;;;;;;4935882;29;20296;-58
2023/09/16 00:12:54;;;;;;;4.32;3.92;;;17.90;99.90;;;;;;4935468;29;20214;-58
2023/09/16 00:15:22;;;;;;;4.72;4.15;;;17.90;99.90;;;;;;4900634;29;1052216;-58
2023/09/16 00:17:50;;;;;;;6.43;4.20;;;17.90;99.90;;;;;;4937232;29;20733;-58
2023/09/16 00:20:19;;;;;;;4.35;3.85;;;17.90;99.90;;;;;;4937184;29;20406;-58
2023/09/16 00:22:48;;;;;;;4.78;4.25;;;17.90;99.90;;;;;;4937653;29;20651;-58
2023/09/16 00:25:16;;;;;;;5.35;3.97;;;17.90;99.90;;;;;;4935550;29;20265;-58
2023/09/16 00:27:44;;;;;;;5.10;3.88;;;17.90;99.90;;;;;;4936099;29;20288;-58
2023/09/16 00:30:12;;;;;;;4.15;3.92;;;17.90;99.90;;;;;;4936109;29;20636;-58
2023/09/16 00:32:41;;;;;;;5.53;3.78;;;17.90;99.90;;;;;;4937117;29;20205;-58
2023/09/16 00:35:09;;;;;;;5.20;3.97;;;17.90;99.90;;;;;;4935661;29;20233;-57
2023/09/16 00:37:38;;;;;;;5.03;4.00;;;18.00;99.90;;;;;;4936119;29;20240;-57
2023/09/16 00:40:08;;;;;;;4.78;4.38;;;18.00;99.90;;;;;;4934870;29;20731;-58
2023/09/16 00:42:38;;;;;;;5.05;4.20;;;17.90;99.90;;;;;;4936419;29;20244;-59
2023/09/16 00:45:10;;;;;;;4.53;3.95;;;17.90;99.90;;;;;;4936161;29;20316;-58
2023/09/16 00:47:40;;;;;;;4.63;4.22;;;17.90;99.90;;;;;;4936220;29;20284;-58
2023/09/16 00:50:08;;;;;;;5.68;4.30;;;17.90;99.90;;;;;;4936527;29;20209;-57
2023/09/16 00:52:38;;;;;;;5.18;4.30;;;17.90;99.90;;;;;;4932169;29;20210;-59
2023/09/16 00:55:08;;;;;;;3.95;3.65;;;17.90;99.90;;;;;;4930915;29;20327;-57
2023/09/16 00:57:37;;;;;;;4.45;4.00;;;17.80;99.90;;;;;;4929679;29;20663;-59
2023/09/16 01:00:07;;;;;;;4.75;4.28;;;17.80;99.90;;;;;;4935913;29;20229;-58
2023/09/16 01:02:36;;;;;;;4.45;4.15;;;17.80;99.90;;;;;;4935176;29;20205;-60
2023/09/16 01:05:08;;;;;;;4.43;4.05;;;17.80;99.90;;;;;;4935338;29;20325;-58
2023/09/16 01:07:37;;;;;;;4.45;4.00;;;17.80;99.90;;;;;;4935302;29;20205;-57
2023/09/16 01:10:05;;;;;;;4.32;3.92;;;17.90;99.90;;;;;;4932892;29;20232;-58
2023/09/16 01:12:35;;;;;;;3.55;3.35;;;17.80;99.90;;;;;;4935471;29;20577;-59
2023/09/16 01:15:03;;;;;;;4.90;4.07;;;17.80;99.90;;;;;;4934775;29;20706;-57
2023/09/16 01:17:34;;;;;;;3.95;3.65;;;17.80;99.90;;;;;;4929171;29;20679;-58
2023/09/16 01:20:06;;;;;;;4.30;3.85;;;17.80;99.90;;;;;;4936658;29;20591;-58
2023/09/16 01:22:34;;;;;;;4.93;4.32;;;17.70;99.90;;;;;;4931698;29;20269;-58
2023/09/16 01:25:04;;;;;;;4.32;4.03;;;17.70;99.90;;;;;;4933897;29;20260;-57
2023/09/16 01:27:32;;;;;;;6.10;3.78;;;17.70;99.90;;;;;;4927546;29;20201;-57
2023/09/16 01:30:00;;;;;;;4.13;3.85;;;17.70;99.90;;;;;;4929217;29;20216;-59
2023/09/16 01:32:34;;;;;;;6.50;3.97;;;17.60;99.90;;;;;;4935489;29;20210;-58
2023/09/16 01:35:04;;;;;;;6.30;4.03;;;17.60;99.90;;;;;;4935495;29;20229;-57
2023/09/16 01:37:32;;;;;;;4.60;3.85;;;17.60;99.90;;;;;;4934590;29;20874;-58
2023/09/16 01:40:00;;;;;;;6.53;3.70;;;17.60;99.90;;;;;;4928125;29;20221;-57
2023/09/16 01:42:30;;;;;;;3.85;3.60;;;17.50;99.90;;;;;;4924351;29;20205;-58
2023/09/16 01:44:58;;;;;;;6.40;4.10;;;17.50;99.90;;;;;;4930204;29;20229;-59
2023/09/16 01:47:25;;;;;;;4.30;4.00;;;17.50;99.90;;;;;;4934990;29;20320;-62
2023/09/16 01:49:53;;;;;;;4.20;3.90;;;17.50;99.90;;;;;;4928212;29;20206;-58
2023/09/16 01:52:21;;;;;;;3.97;3.60;;;17.50;99.90;;;;;;4934497;29;21012;-57
2023/09/16 01:54:49;;;;;;;3.90;3.55;;;17.40;99.90;;;;;;4933492;29;20271;-59
2023/09/16 01:57:17;;;;;;;3.58;3.40;;;17.40;99.90;;;;;;4932629;29;20209;-57
2023/09/16 01:59:46;;;;;;;5.22;3.60;;;17.40;99.90;;;;;;4935325;29;20237;-60
2023/09/16 02:02:14;;;;;;;4.25;3.90;;;17.40;99.90;;;;;;4934788;29;20667;-59
2023/09/16 02:04:43;;;;;;;6.00;3.78;;;17.40;99.90;;;;;;4933762;29;20261;-57
2023/09/16 02:07:12;;;;;;;4.10;3.90;;;17.30;99.90;;;;;;4932704;29;20304;-56
2023/09/16 02:09:40;;;;;;;6.35;3.63;;;17.30;99.90;;;;;;4934238;29;20735;-59
2023/09/16 02:12:08;;;;;;;4.10;3.70;;;17.30;99.90;;;;;;4933644;29;20248;-58
2023/09/16 02:14:39;;;;;;;4.30;3.90;;;17.30;99.90;;;;;;4934468;29;20233;-58
2023/09/16 02:17:09;;;;;;;3.80;3.60;;;17.30;99.90;;;;;;4934971;29;20249;-57
2023/09/16 02:19:37;;;;;;;4.20;3.88;;;17.30;99.90;;;;;;4928330;29;20288;-59
2023/09/16 02:22:05;;;;;;;4.65;3.95;;;17.30;99.90;;;;;;4930848;29;20225;-58
2023/09/16 02:24:34;;;;;;;3.58;3.38;;;17.30;99.90;;;;;;4932170;29;20235;-58
2023/09/16 02:27:01;;;;;;;4.30;3.65;;;17.30;99.90;;;;;;4934050;29;20667;-57
2023/09/16 02:29:29;;;;;;;3.33;3.15;;;17.20;99.90;;;;;;4934076;29;20209;-58
2023/09/16 02:31:57;;;;;;;5.05;3.58;;;17.20;99.90;;;;;;4927946;29;20234;-58
2023/09/16 02:34:27;;;;;;;4.13;3.70;;;17.20;99.90;;;;;;4925723;29;20272;-59
2023/09/16 02:36:54;;;;;;;6.03;4.15;;;17.10;99.90;;;;;;4929394;29;20209;-58
2023/09/16 02:39:22;;;;;;;4.22;3.83;;;17.10;99.90;;;;;;4934288;29;20747;-58
2023/09/16 02:41:50;;;;;;;4.10;3.80;;;17.10;99.90;;;;;;4933878;29;20261;-58
2023/09/16 02:44:18;;;;;;;3.92;3.72;;;17.00;99.90;;;;;;4933126;29;20233;-59
2023/09/16 02:46:46;;;;;;;7.38;3.78;;;17.00;99.90;;;;;;4932984;29;20209;-59
2023/09/16 02:49:14;;;;;;;5.30;4.53;;;17.00;99.90;;;;;;4933379;29;20214;-59
2023/09/16 02:51:44;;;;;;;3.55;3.35;;;17.00;99.90;;;;;;4934266;29;20671;-58
2023/09/16 02:54:12;;;;;;;3.90;3.40;;;16.90;99.90;;;;;;4932420;29;20237;-59
2023/09/16 02:56:40;;;;;;;3.85;3.38;;;16.90;99.90;;;;;;4933454;29;20237;-58
2023/09/16 02:59:07;;;;;;;3.70;3.40;;;16.90;99.90;;;;;;4931015;29;20304;-58
2023/09/16 03:01:35;;;;;;;4.75;3.53;;;16.80;99.90;;;;;;4933438;29;20292;-59
2023/09/16 03:04:03;;;;;;;4.03;3.45;;;16.80;99.90;;;;;;4933976;29;20234;-58
2023/09/16 03:06:31;;;;;;;3.80;3.53;;;16.80;99.90;;;;;;4931379;29;20217;-60
2023/09/16 03:09:00;;;;;;;5.38;3.40;;;16.70;99.90;;;;;;4933824;29;20269;-58
2023/09/16 03:11:28;;;;;;;5.47;3.78;;;16.70;99.90;;;;;;4933145;29;20292;-58
2023/09/16 03:13:56;;;;;;;7.50;3.78;;;16.70;99.90;;;;;;4933451;29;20261;-58
2023/09/16 03:16:24;;;;;;;3.47;3.25;;;16.70;99.90;;;;;;4929726;29;20559;-59
2023/09/16 03:18:53;;;;;;;3.75;3.53;;;16.60;99.90;;;;;;4930668;29;20218;-57
2023/09/16 03:21:24;;;;;;;2.95;2.78;;;16.60;99.90;;;;;;4932859;29;20715;-58
2023/09/16 03:23:51;;;;;;;3.78;3.58;;;16.60;99.90;;;;;;4932037;29;20213;-58
2023/09/16 03:26:21;;;;;;;5.25;3.67;;;16.60;99.90;;;;;;4932415;29;20296;-58
2023/09/16 03:28:49;;;;;;;4.22;3.90;;;16.60;99.90;;;;;;4933897;29;20206;-60
2023/09/16 03:31:17;;;;;;;4.03;3.67;;;16.60;99.90;;;;;;4932578;29;20205;-58
2023/09/16 03:33:45;;;;;;;4.55;3.70;;;16.60;99.90;;;;;;4933731;29;20630;-59
2023/09/16 03:36:13;;;;;;;3.25;3.05;;;16.60;99.90;;;;;;4929605;29;20209;-58
2023/09/16 03:38:45;;;;;;;5.18;3.15;;;16.60;99.90;;;;;;4931610;29;20630;-58
2023/09/16 03:41:15;;;;;;;4.15;3.85;;;16.60;99.90;;;;;;4931424;29;20225;-58
2023/09/16 03:43:45;;;;;;;4.38;3.97;;;16.50;99.90;;;;;;4932293;29;20202;-59
2023/09/16 03:46:16;;;;;;;3.95;3.50;;;16.50;99.90;;;;;;4927590;29;20218;-58
2023/09/16 03:48:44;;;;;;;3.63;3.33;;;16.40;99.90;;;;;;4933554;29;20291;-58
2023/09/16 03:51:13;;;;;;;3.72;3.42;;;16.40;99.90;;;;;;4933507;29;20229;-58
2023/09/16 03:53:41;;;;;;;4.80;3.78;;;16.40;99.90;;;;;;4932745;29;20244;-58
2023/09/16 03:56:09;;;;;;;5.60;3.42;;;16.40;99.90;;;;;;4931191;29;20290;-59
2023/09/16 03:58:37;;;;;;;4.22;3.72;;;16.40;99.90;;;;;;4928464;29;20292;-58
2023/09/16 04:01:06;;;;;;;3.80;3.60;;;16.30;99.90;;;;;;4930473;29;20217;-57
2023/09/16 04:03:35;;;;;;;4.30;3.90;;;16.30;99.90;;;;;;4931475;29;20710;-58
2023/09/16 04:06:04;;;;;;;3.80;3.60;;;16.30;99.90;;;;;;4927002;29;20706;-58
2023/09/16 04:08:33;;;;;;;3.47;3.28;;;16.30;99.90;;;;;;4929628;29;20251;-58
2023/09/16 04:11:09;;;;;;;5.38;3.53;;;16.30;99.90;;;;;;4928577;29;20216;-59
2023/09/16 04:13:37;;;;;;;4.85;3.47;;;16.30;99.90;;;;;;4931276;29;20211;-60
2023/09/16 04:16:07;;;;;;;3.60;2.90;;;16.30;99.90;;;;;;5000863;23;20235;-59
2023/09/16 04:18:36;;;;;;;5.35;3.45;;;16.20;99.90;;;;;;4989890;28;20582;-57
2023/09/16 04:21:04;;;;;;;3.70;3.40;;;16.20;99.90;;;;;;4991388;28;20208;-57
2023/09/16 04:23:31;;;;;;;4.07;3.55;;;16.20;99.90;;;;;;4982527;28;20586;-58
2023/09/16 04:26:00;;;;;;;3.95;3.65;;;16.20;99.90;;;;;;4987242;28;20784;-58
2023/09/16 04:28:28;;;;;;;4.15;3.80;;;16.20;99.90;;;;;;4990295;28;20204;-60
2023/09/16 04:30:56;;;;;;;3.60;3.30;;;16.20;99.90;;;;;;4992947;28;20208;-57
2023/09/16 04:33:25;;;;;;;4.90;3.58;;;16.20;99.90;;;;;;4991936;28;20208;-58
2023/09/16 04:35:53;;;;;;;5.60;3.58;;;16.20;99.90;;;;;;4990963;28;20227;-58
2023/09/16 04:38:21;;;;;;;3.78;3.47;;;16.20;99.90;;;;;;4994819;28;20207;-59
2023/09/16 04:40:49;;;;;;;3.85;3.35;;;16.20;99.90;;;;;;4990403;28;20678;-59
2023/09/16 04:43:17;;;;;;;4.05;3.80;;;16.20;99.90;;;;;;4991502;28;20227;-59
2023/09/16 04:45:49;;;;;;;3.78;3.47;;;16.20;99.90;;;;;;4993014;28;20274;-60
2023/09/16 04:48:17;;;;;;;4.78;3.55;;;16.20;99.90;;;;;;4992563;28;20200;-59
2023/09/16 04:50:47;;;;;;;4.07;3.65;;;16.10;99.90;;;;;;4993303;28;20208;-59
2023/09/16 04:53:15;;;;;;;4.68;3.80;;;16.10;99.90;;;;;;4994683;28;20227;-57
2023/09/16 04:55:43;;;;;;;3.75;3.28;;;16.10;99.90;;;;;;4988905;28;20674;-57
2023/09/16 04:58:11;;;;;;;3.38;3.17;;;16.10;99.90;;;;;;4991474;28;20344;-58
2023/09/16 05:00:39;;;;;;;4.22;3.83;;;16.10;99.90;;;;;;4994111;28;20294;-58
2023/09/16 05:03:07;;;;;;;5.50;3.40;;;16.00;99.90;;;;;;4993887;28;20223;-59
2023/09/16 05:05:36;;;;;;;4.25;3.95;;;16.00;99.90;;;;;;4994280;28;20237;-58
2023/09/16 05:08:05;;;;;;;3.40;3.20;;;16.00;99.90;;;;;;4986150;28;20204;-58
2023/09/16 05:10:33;;;;;;;4.18;3.88;;;16.00;99.90;;;;;;4991195;28;20211;-58
2023/09/16 05:13:01;;;;;;;3.70;3.47;;;16.00;99.90;;;;;;4993513;28;20239;-58
2023/09/16 05:15:28;;;;;;;3.95;3.65;;;16.00;99.90;;;;;;4992731;28;20242;-58
2023/09/16 05:17:56;;;;;;;6.25;3.95;;;16.00;99.90;;;;;;4993091;28;20208;-60
2023/09/16 05:20:24;;;;;;;3.83;3.55;;;16.00;99.90;;;;;;4992591;28;20211;-58
2023/09/16 05:22:52;;;;;;;11.55;3.88;;;16.00;99.90;;;;;;4992548;28;20282;-58
2023/09/16 05:25:22;;;;;;;4.35;3.72;;;16.00;99.90;;;;;;4983587;28;20772;-59
2023/09/16 05:27:50;;;;;;;4.32;3.92;;;16.10;99.90;;;;;;4993083;28;20207;-59
2023/09/16 05:30:18;;;;;;;3.67;3.38;;;16.10;99.90;;;;;;4989671;28;20208;-60
2023/09/16 05:32:45;;;;;;;5.53;3.58;;;16.10;99.90;;;;;;4989582;28;20282;-60
2023/09/16 05:35:13;;;;;;;4.80;3.83;;;16.20;99.90;;;;;;4986322;28;20284;-58
2023/09/16 05:37:41;;;;;;;4.00;3.53;;;16.20;99.90;;;;;;4989528;28;20203;-58
2023/09/16 05:40:09;;;;;;;4.10;3.53;;;16.20;99.90;;;;;;4988262;28;20680;-59
2023/09/16 05:42:39;;;;;;;5.43;3.65;;;16.20;99.90;;;;;;4988346;28;20220;-60
2023/09/16 05:45:08;;;;;;;3.47;3.28;;;16.20;99.90;;;;;;4993760;28;20238;-60
2023/09/16 05:47:36;;;;;;;5.47;3.40;;;16.20;99.90;;;;;;4991858;28;20287;-60
2023/09/16 05:50:04;;;;;;;4.70;3.28;;;16.30;99.90;;;;;;4989557;28;20215;-58
2023/09/16 05:52:32;;;;;;;4.32;4.03;;;16.30;99.90;;;;;;4988574;28;20257;-58
2023/09/16 05:55:00;;;;;;;3.97;3.67;;;16.30;99.90;;;;;;4990745;28;20266;-58
2023/09/16 05:57:27;;;;;;;3.65;3.35;;;16.30;99.90;;;;;;4984771;28;20212;-58
2023/09/16 05:59:57;;;;;;;5.47;3.97;;;16.30;99.90;;;;;;4990864;28;20627;-62
2023/09/16 06:02:25;;;;;;;3.47;3.20;;;16.30;99.90;;;;;;4985890;28;20259;-63
2023/09/16 06:04:52;;;;;;;3.80;3.50;;;16.40;99.90;;;;;;4986903;28;20310;-62
2023/09/16 06:07:20;;;;;;;3.72;3.53;;;16.40;99.90;;;;;;4989956;28;20204;-64
2023/09/16 06:09:48;;;;;;;4.80;4.00;;;16.50;99.90;;;;;;4986735;28;20298;-63
2023/09/16 06:12:16;;;;;;;4.05;3.15;;;16.50;99.90;;;;;;4987450;28;20298;-63
2023/09/16 06:14:44;;;;;;;3.53;3.33;;;16.50;99.90;;;;;;4988260;28;20235;-63
2023/09/16 06:17:13;;;;;;;4.45;3.92;;;16.60;99.90;;;;;;4989251;28;20208;-64
2023/09/16 06:19:41;;;;;;;4.43;3.53;;;16.60;99.90;;;;;;4992592;28;20223;-64
2023/09/16 06:22:11;;;;;;;6.03;4.13;;;16.60;99.90;;;;;;4992576;28;20204;-64
2023/09/16 06:24:39;;;;;;;4.20;3.90;;;16.70;99.90;;;;;;4991862;28;20231;-62
2023/09/16 06:27:07;;;;;;;4.50;4.20;;;16.70;99.90;;;;;;4992768;28;20204;-62
2023/09/16 06:29:34;;;;;;;5.28;3.72;;;16.80;99.90;;;;;;4992759;28;20242;-63
2023/09/16 06:32:02;;;;;;;5.68;4.10;;;16.90;99.90;;;;;;4986685;28;20231;-62
2023/09/16 06:34:32;;;;;;;5.50;3.75;;;16.90;99.90;;;;;;4983122;28;20216;-63
2023/09/16 06:37:00;;;;;;;3.95;3.70;;;17.00;99.90;;;;;;4985004;28;20665;-63
2023/09/16 06:39:28;;;;;;;4.20;3.90;;;17.10;99.90;;;;;;4980906;28;20211;-63
2023/09/16 06:41:56;;;;;;;4.32;3.90;;;17.10;99.90;;;;;;4983735;28;20290;-63
2023/09/16 06:44:24;;;;;;;3.92;3.70;;;17.20;99.90;;;;;;4980037;28;20994;-63
2023/09/16 06:46:52;;;;;;;3.70;3.40;;;17.30;99.90;;;;;;4990295;28;20304;-63
2023/09/16 06:49:20;;;;;;;3.92;3.65;;;17.30;99.90;;;;;;4991401;28;20304;-61
2023/09/16 06:51:49;;;;;;;3.47;3.28;;;17.50;99.90;;;;;;4981037;28;20220;-61
2023/09/16 06:54:17;;;;;;;7.07;3.83;;;17.70;99.90;;;;;;4982100;28;20247;-61
2023/09/16 06:56:45;;;;;;;4.00;3.80;;;17.90;99.90;;;;;;4984059;28;20259;-61
2023/09/16 06:59:13;;;;;;;4.07;3.67;;;18.10;99.90;;;;;;4980498;28;20282;-60
2023/09/16 07:01:41;;;;;;;3.15;3.05;;;18.30;99.90;;;;;;4988735;28;20199;-62
2023/09/16 07:04:09;;;;;;;4.63;3.65;;;18.50;99.90;;;;;;4990670;28;20318;-61
2023/09/16 07:06:37;;;;;;;3.47;3.28;;;18.70;99.90;;;;;;4986141;28;20203;-61
2023/09/16 07:09:06;;;;;;;3.85;3.55;;;18.80;99.90;;;;;;4989192;28;20298;-61
2023/09/16 07:11:34;;;;;;;4.45;3.55;;;18.90;99.90;;;;;;4986518;28;20204;-62
2023/09/16 07:14:03;;;;;;;3.63;3.42;;;19.10;99.90;;;;;;4987450;28;20242;-62
2023/09/16 07:16:36;;;;;;;3.75;3.45;;;19.30;99.90;;;;;;4983636;28;20743;-62
2023/09/16 07:19:04;;;;;;;3.58;3.25;;;19.30;99.90;;;;;;4982060;28;20212;-62
2023/09/16 07:21:32;;;;;;;4.25;3.70;;;19.20;99.90;;;;;;4988553;28;20215;-63
2023/09/16 07:24:00;;;;;;;3.63;3.42;;;19.20;99.90;;;;;;4986677;28;20226;-63
2023/09/16 07:26:30;;;;;;;3.53;3.22;;;19.10;99.90;;;;;;4996229;28;20218;-62
2023/09/16 07:28:58;;;;;;;3.53;3.30;;;19.10;99.90;;;;;;4990764;28;20215;-62
2023/09/16 07:31:26;;;;;;;4.50;3.53;;;19.10;99.90;;;;;;4990332;28;20231;-55
2023/09/16 07:33:53;;;;;;;6.70;4.00;;;19.20;99.90;;;;;;4991900;28;20199;-54
2023/09/16 07:36:21;;;;;;;5.22;3.42;;;19.20;99.90;;;;;;4990736;28;20223;-56
2023/09/16 07:38:49;;;;;;;3.78;3.47;;;19.10;99.90;;;;;;4973671;28;20265;-56
2023/09/16 07:41:19;;;;;;;3.47;3.28;;;19.10;99.90;;;;;;4973502;28;20585;-54
2023/09/16 07:43:48;;;;;;;3.55;3.20;;;19.10;99.90;;;;;;4974311;28;20318;-52
2023/09/16 07:46:16;;;;;;;6.72;3.45;;;19.20;99.90;;;;;;4975042;28;20687;-54
2023/09/16 07:48:44;;;;;;;5.65;3.67;;;19.30;99.90;;;;;;4974977;28;20673;-55
2023/09/16 07:51:12;;;;;;;6.30;3.22;;;19.30;99.90;;;;;;4974138;28;20216;-54
2023/09/16 07:53:40;;;;;;;4.00;3.63;;;19.40;99.90;;;;;;4974102;28;20295;-53
2023/09/16 07:56:08;;;;;;;3.95;3.58;;;19.50;99.90;;;;;;4974445;28;20231;-54
2023/09/16 07:58:36;;;;;;;3.75;3.53;;;19.70;99.90;;;;;;4988219;28;20239;-55
2023/09/16 08:01:05;;;;;;;4.53;3.53;;;19.70;99.90;;;;;;4974580;28;20204;-51
2023/09/16 08:03:33;;;;;;;4.03;3.50;;;19.80;99.90;;;;;;4974214;28;20228;-51
2023/09/16 08:06:01;;;;;;;3.53;3.33;;;19.90;99.90;;;;;;4976796;28;20259;-52
2023/09/16 08:08:29;;;;;;;4.10;3.47;;;20.00;99.90;;;;;;4979990;28;20219;-52
2023/09/16 08:10:57;;;;;;;3.60;3.40;;;20.10;99.90;;;;;;4978222;28;20761;-51
2023/09/16 08:13:25;;;;;;;3.70;3.40;;;20.10;99.90;;;;;;4978212;28;20243;-52
2023/09/16 08:15:52;;;;;;;3.78;3.25;;;20.20;99.90;;;;;;4978012;28;20263;-57
2023/09/16 08:18:22;;;;;;;3.20;2.97;;;20.30;99.90;;;;;;4979114;28;20212;-54
2023/09/16 08:20:50;;;;;;;4.97;3.42;;;20.40;99.90;;;;;;4985865;28;20242;-54
2023/09/16 08:23:17;;;;;;;4.07;3.67;;;20.50;99.90;;;;;;4977876;28;20244;-53
2023/09/16 08:25:46;;;;;;;3.83;3.63;;;20.60;99.90;;;;;;4988664;28;20305;-51
2023/09/16 08:28:14;;;;;;;3.85;3.28;;;20.70;99.90;;;;;;4981062;28;20567;-52
2023/09/16 08:30:42;;;;;;;4.03;3.60;;;20.80;99.90;;;;;;4982410;28;20203;-51
2023/09/16 08:33:10;;;;;;;4.75;3.40;;;20.90;99.90;;;;;;4983539;28;20204;-52
2023/09/16 08:35:39;;;;;;;5.25;3.40;;;21.10;99.90;;;;;;4977720;28;20654;-51
2023/09/16 08:38:07;;;;;;;3.90;3.33;;;21.10;99.90;;;;;;4977462;28;20638;-54
2023/09/16 08:40:35;;;;;;;4.15;3.17;;;21.20;99.90;;;;;;4980705;28;20215;-54
2023/09/16 08:43:11;;;;;;;4.85;3.58;;;21.30;99.90;;;;;;4977628;28;20208;-55
2023/09/16 08:45:41;;;;;;;3.83;3.53;;;21.40;99.90;;;;;;4977693;28;20263;-58
2023/09/16 08:48:08;;;;;;;4.32;3.30;;;21.50;99.90;;;;;;4976739;28;20219;-59
2023/09/16 08:50:36;;;;;;;3.50;3.25;;;21.60;99.90;;;;;;4991417;28;20211;-59
2023/09/16 08:53:07;;;;;;;10.18;3.90;;;21.70;99.90;;;;;;4976599;28;20287;-56
2023/09/16 08:55:35;;;;;;;3.63;3.33;;;21.80;99.90;;;;;;4977004;28;20721;-56
2023/09/16 08:58:04;;;;;;;4.35;3.60;;;21.90;99.90;;;;;;4976536;28;20254;-56
2023/09/16 09:00:32;;;;;;;8.45;3.72;;;22.00;99.90;;;;;;4979186;28;20206;-57
2023/09/16 09:03:00;;;;;;;4.20;3.63;;;22.20;99.90;;;;;;4977647;28;20204;-57
2023/09/16 09:05:28;;;;;;;4.05;3.75;;;22.30;99.90;;;;;;4977790;28;20224;-56
2023/09/16 09:07:57;;;;;;;3.53;3.33;;;22.50;99.90;;;;;;4977115;28;20218;-55
2023/09/16 09:10:27;;;;;;;3.50;3.20;;;22.70;99.90;;;;;;4979108;28;20667;-56
2023/09/16 09:12:55;;;;;;;6.43;3.33;;;22.90;99.90;;;;;;4977143;28;20722;-55
2023/09/16 09:15:23;;;;;;;3.75;3.55;;;23.00;99.90;;;;;;4977528;28;20243;-56
2023/09/16 09:17:53;;;;;;;5.57;3.97;;;23.00;99.90;;;;;;4976052;28;20235;-56
2023/09/16 09:20:22;;;;;;;3.78;3.42;;;23.30;99.90;;;;;;4986357;28;20222;-54
2023/09/16 09:22:50;;;;;;;7.20;3.63;;;23.30;99.90;;;;;;4977568;28;20290;-55
2023/09/16 09:25:20;;;;;;;3.50;3.30;;;23.40;99.90;;;;;;4977031;28;20314;-58
2023/09/16 09:27:50;;;;;;;4.22;3.83;;;23.50;99.90;;;;;;4984680;28;20677;-56
2023/09/16 09:30:24;;;;;;;3.90;3.60;;;23.70;99.90;;;;;;4980669;28;20784;-56
2023/09/16 09:32:52;;;;;;;3.92;3.63;;;23.90;99.90;;;;;;4977799;28;20204;-56
2023/09/16 09:35:21;;;;;;;4.13;3.75;;;24.10;99.90;;;;;;4979024;28;20227;-52
2023/09/16 09:37:49;;;;;;;4.07;3.78;;;24.40;99.90;;;;;;4982984;28;20683;-55
2023/09/16 09:40:17;;;;;;;3.70;3.40;;;24.60;99.90;;;;;;4978307;28;20263;-52
2023/09/16 09:42:46;;;;;;;3.83;3.53;;;24.90;99.90;;;;;;4978839;28;20203;-54
2023/09/16 09:45:16;;;;;;;5.75;4.05;;;25.20;99.90;;;;;;4992866;28;20297;-52
2023/09/16 09:47:44;;;;;;;4.10;3.80;;;25.40;99.90;;;;;;4993358;28;20227;-52
2023/09/16 09:50:13;;;;;;;9.20;4.22;;;25.60;99.90;;;;;;4993634;28;20619;-53
2023/09/16 09:52:46;;;;;;;4.03;3.72;;;25.80;99.90;;;;;;4993355;28;20204;-54
2023/09/16 09:55:15;;;;;;;4.38;4.00;;;26.00;99.90;;;;;;4988914;28;20302;-55
2023/09/16 09:57:45;;;;;;;3.30;3.20;;;26.20;99.90;;;;;;4976840;28;20205;-55
2023/09/16 10:00:16;;;;;;;3.83;3.50;;;26.40;99.90;;;;;;4977641;28;20205;-56
2023/09/16 10:02:44;;;;;;;5.90;3.80;;;26.70;99.90;;;;;;4978665;28;20288;-55
2023/09/16 10:05:16;;;;;;;5.72;4.50;;;27.00;99.90;;;;;;4976967;28;20235;-56
2023/09/16 10:07:44;;;;;;;6.50;4.85;;;27.10;99.90;;;;;;4976972;28;20208;-57
2023/09/16 10:10:17;;;;;;;6.97;5.20;;;27.30;99.90;;;;;;4977549;28;20208;-57
2023/09/16 10:12:45;;;;;;;4.82;4.45;;;27.60;99.90;;;;;;4978615;28;20258;-57
2023/09/16 10:15:13;;;;;;;6.90;4.78;;;27.80;99.90;;;;;;5007715;23;20587;-74
2023/09/16 10:17:42;;;;;;;5.82;4.78;;;28.00;99.90;;;;;;5003214;28;20207;-74
2023/09/16 10:20:13;;;;;;;4.43;4.13;;;28.30;99.90;;;;;;5009415;28;20725;-74
2023/09/16 10:22:41;;;;;;;5.07;4.18;;;28.40;99.90;;;;;;5009593;28;20202;-74
2023/09/16 10:25:09;;;;;;;4.60;4.22;;;28.60;99.90;;;;;;4996698;28;20223;-74
2023/09/16 10:27:40;;;;;;;4.28;4.05;;;28.70;99.90;;;;;;5003677;28;20277;-74
2023/09/16 10:30:08;;;;;;;4.47;4.15;;;28.90;99.90;;;;;;5012973;28;20227;-74
2023/09/16 10:32:36;;;;;;;5.25;4.20;;;29.10;99.90;;;;;;5009300;28;20235;-74
2023/09/16 10:35:08;;;;;;;4.20;4.00;;;29.30;99.90;;;;;;4997933;28;20203;-74
2023/09/16 10:37:36;;;;;;;4.43;4.05;;;29.60;99.90;;;;;;5003446;28;20241;-76
2023/09/16 10:40:05;;;;;;;4.97;4.57;;;29.60;99.90;;;;;;5012672;28;20230;-75
2023/09/16 10:42:35;;;;;;;5.07;4.28;;;29.80;99.90;;;;;;4999235;28;20285;-75
2023/09/16 10:45:03;;;;;;;4.65;4.18;;;30.10;99.90;;;;;;5008733;28;20671;-75
2023/09/16 10:47:32;;;;;;;5.05;4.30;;;30.30;99.90;;;;;;5008277;28;20276;-76
2023/09/16 10:50:00;;;;;;;4.28;3.88;;;30.60;99.90;;;;;;5012359;28;20253;-75
2023/09/16 10:52:31;;;;;;;4.60;4.18;;;30.70;99.90;;;;;;4999071;28;20210;-75
2023/09/16 10:55:01;;;;;;;4.95;4.57;;;30.90;99.90;;;;;;4996183;28;20203;-76
2023/09/16 10:57:32;;;;;;;4.75;4.30;;;31.00;99.90;;;;;;4995881;28;20212;-75
2023/09/16 10:59:59;;;;;;;4.20;3.85;;;31.20;99.90;;;;;;4995808;28;20315;-75
2023/09/16 11:02:32;;;;;;;4.32;3.92;;;31.30;99.90;;;;;;5000916;28;20298;-73
2023/09/16 11:05:00;;;;;;;4.35;4.00;;;31.50;99.90;;;;;;4999386;28;20226;-73
2023/09/16 11:07:29;;;;;;;6.60;4.22;;;31.90;99.90;;;;;;5004604;28;20594;-73
2023/09/16 11:09:57;;;;;;;4.55;4.25;;;32.10;99.90;;;;;;5011267;28;20231;-73
2023/09/16 11:12:25;;;;;;;3.92;3.72;;;32.20;99.90;;;;;;5011651;28;20213;-73
2023/09/16 11:14:53;;;;;;;4.35;4.05;;;32.50;99.90;;;;;;5009717;28;20203;-73
2023/09/16 11:17:21;;;;;;;4.47;4.18;;;32.70;99.90;;;;;;5001338;28;20207;-74
2023/09/16 11:19:49;;;;;;;4.53;3.88;;;32.70;99.90;;;;;;5011025;28;20241;-74
2023/09/16 11:22:17;;;;;;;4.53;4.20;;;32.80;99.90;;;;;;5010865;28;20655;-74
2023/09/16 11:24:47;;;;;;;4.47;4.18;;;33.00;99.90;;;;;;5011219;28;20253;-74
2023/09/16 11:27:17;;;;;;;4.85;4.35;;;33.10;99.90;;;;;;4994744;28;20242;-75
2023/09/16 11:29:50;;;;;;;4.20;4.00;;;33.10;99.90;;;;;;4997015;28;20318;-74
2023/09/16 11:32:21;;;;;;;4.50;4.15;;;33.20;99.90;;;;;;5011409;28;20206;-74
2023/09/16 11:34:49;;;;;;;4.40;4.18;;;33.30;99.90;;;;;;5011579;28;20734;-74
2023/09/16 11:37:17;;;;;;;5.07;4.68;;;33.50;99.90;;;;;;5006243;28;20689;-74
2023/09/16 11:39:46;;;;;;;4.28;4.00;;;33.60;99.90;;;;;;5003524;28;20229;-74
2023/09/16 11:42:18;;;;;;;4.78;4.38;;;33.70;99.90;;;;;;5011300;28;20208;-74
2023/09/16 11:44:46;;;;;;;4.20;4.00;;;33.80;99.90;;;;;;5010494;28;20226;-74
2023/09/16 11:47:14;;;;;;;4.68;4.22;;;33.70;99.90;;;;;;4999150;28;20306;-74
2023/09/16 11:49:42;;;;;;;4.60;4.25;;;33.70;99.90;;;;;;5004109;28;20223;-74
2023/09/16 11:52:10;;;;;;;4.47;4.28;;;33.80;99.90;;;;;;5010273;28;20234;-74
2023/09/16 11:54:37;;;;;;;8.63;3.88;;;34.00;99.90;;;;;;5007915;28;20202;-74
2023/09/16 11:57:05;;;;;;;4.30;4.07;;;34.10;99.90;;;;;;4999812;28;20290;-74
2023/09/16 11:59:35;;;;;;;5.00;3.97;;;34.30;99.90;;;;;;4999085;28;20258;-74
2023/09/16 12:02:03;;;;;;;4.93;4.57;;;34.30;99.90;;;;;;4995726;28;20239;-74
2023/09/16 12:04:34;;;;;;;5.32;3.72;;;34.40;99.90;;;;;;4998450;28;20289;-74
2023/09/16 12:07:02;;;;;;;4.18;3.92;;;34.50;99.90;;;;;;5011342;28;20222;-74
2023/09/16 12:09:30;;;;;;;5.13;4.70;;;34.40;99.90;;;;;;5004251;28;20804;-74
2023/09/16 12:11:58;;;;;;;4.63;4.18;;;34.30;99.90;;;;;;4995656;28;20239;-74
2023/09/16 12:14:25;;;;;;;4.35;4.05;;;34.40;99.90;;;;;;4995739;28;20820;-73
2023/09/16 12:16:55;;;;;;;9.73;7.47;;;34.60;99.90;;;;;;4997194;28;20630;-74
2023/09/16 12:19:23;;;;;;;5.03;4.70;;;34.70;99.90;;;;;;5005578;28;20203;-74
2023/09/16 12:21:51;;;;;;;78.53;25.05;;;34.80;99.40;;;;;;4995610;28;20212;-74
2023/09/16 12:24:19;;;;;;;7.18;4.50;;;34.70;99.90;;;;;;4995521;28;20254;-74
2023/09/16 12:26:47;;;;;;;4.55;4.15;;;34.50;99.90;;;;;;4997018;28;20245;-74
2023/09/16 12:29:15;;;;;;;3.75;3.60;;;34.50;99.70;;;;;;4995125;28;20207;-74
2023/09/16 12:31:43;;;;;;;3.75;3.55;;;34.70;99.10;;;;;;5029979;23;20770;-62
2023/09/16 12:34:16;;;;;;;5.78;3.92;;;34.90;98.00;;;;;;5015387;28;20198;-61
2023/09/16 12:36:49;;;;;;;4.70;3.70;;;35.10;97.80;;;;;;5030221;28;20213;-61
2023/09/16 12:39:16;;;;;;;4.10;3.80;;;35.10;98.90;;;;;;5030530;28;20209;-61
2023/09/16 12:41:46;;;;;;;3.88;3.38;;;35.10;97.60;;;;;;5030537;28;20234;-61
2023/09/16 12:44:24;;;;;;;4.07;3.83;;;35.10;97.80;;;;;;5030758;28;20206;-62
2023/09/16 12:46:52;;;;;;;4.07;3.70;;;35.10;96.40;;;;;;5030343;28;20222;-62
2023/09/16 12:49:21;;;;;;;4.05;3.88;;;35.10;97.60;;;;;;5030655;28;20203;-62
2023/09/16 12:51:49;;;;;;;3.85;3.38;;;35.20;96.80;;;;;;5032395;28;20214;-62